createdAt,value
2019-03-27T00:01:56.903Z,70.42
2019-03-27T00:04:28.079Z,71.20
2019-03-27T00:06:59.472Z,71.76
2019-03-27T00:09:30.796Z,71.37
2019-03-27T00:12:02.110Z,71.20
2019-03-27T00:14:33.445Z,71.45
2019-03-27T00:17:04.801Z,71.62
2019-03-27T00:19:36.835Z,71.95
2019-03-27T00:22:07.485Z,71.97
2019-03-27T00:24:38.531Z,71.60
2019-03-27T00:27:09.849Z,71.57
2019-03-27T00:29:41.178Z,71.61
2019-03-27T00:32:13.441Z,71.49
2019-03-27T00:34:44.684Z,71.57
2019-03-27T00:37:16.053Z,71.75
2019-03-27T00:39:47.299Z,71.75
2019-03-27T00:42:18.616Z,72.20
2019-03-27T00:44:49.846Z,72.00
2019-03-27T00:47:21.184Z,72.01
2019-03-27T00:49:52.563Z,72.31
2019-03-27T00:52:23.922Z,72.66
2019-03-27T00:54:55.309Z,71.99
2019-03-27T00:57:26.669Z,72.61
2019-03-27T00:59:58.084Z,73.44
2019-03-27T01:02:29.412Z,73.76
2019-03-27T01:05:00.762Z,72.78
2019-03-27T01:07:33.282Z,72.74
2019-03-27T01:10:05.466Z,73.08
2019-03-27T01:12:36.706Z,73.50
2019-03-27T01:15:08.076Z,73.15
2019-03-27T01:17:39.464Z,74.12
2019-03-27T01:20:10.983Z,73.90
2019-03-27T01:22:43.612Z,73.95
2019-03-27T01:25:14.869Z,74.11
2019-03-27T01:27:46.366Z,74.21
2019-03-27T01:30:17.719Z,73.38
2019-03-27T01:32:49.117Z,73.08
2019-03-27T01:35:20.442Z,73.99
2019-03-27T01:37:51.836Z,73.56
2019-03-27T01:40:23.224Z,73.66
2019-03-27T01:42:54.751Z,73.47
2019-03-27T01:45:26.089Z,73.57
2019-03-27T01:47:57.505Z,74.13
2019-03-27T01:50:28.833Z,74.22
2019-03-27T01:53:00.582Z,73.77
2019-03-27T01:55:31.948Z,74.66
2019-03-27T01:58:03.274Z,74.45
2019-03-27T02:00:34.586Z,74.94
2019-03-27T02:03:05.954Z,74.22
2019-03-27T02:05:37.193Z,73.95
2019-03-27T02:08:08.639Z,75.09
2019-03-27T02:10:40.021Z,74.93
2019-03-27T02:13:11.276Z,75.96
2019-03-27T02:15:42.723Z,75.16
2019-03-27T02:18:14.042Z,75.49
2019-03-27T02:20:45.381Z,76.39
2019-03-27T02:23:16.735Z,75.68
2019-03-27T02:25:48.060Z,77.56
2019-03-27T02:28:19.322Z,76.24
2019-03-27T02:30:50.647Z,76.54
2019-03-27T02:33:21.834Z,75.82
2019-03-27T02:35:53.495Z,75.27
2019-03-27T02:38:24.676Z,76.33
2019-03-27T02:40:56.193Z,75.54
2019-03-27T02:43:28.702Z,75.48
2019-03-27T02:46:00.206Z,75.82
2019-03-27T02:48:31.637Z,75.15
2019-03-27T02:51:02.880Z,75.04
2019-03-27T02:53:34.246Z,76.30
2019-03-27T02:56:05.643Z,75.22
2019-03-27T02:58:36.917Z,75.69
2019-03-27T03:01:08.178Z,75.47
2019-03-27T03:03:39.526Z,75.45
2019-03-27T03:06:10.841Z,75.57
2019-03-27T03:08:42.050Z,75.08
2019-03-27T03:11:13.168Z,75.49
2019-03-27T03:13:44.557Z,75.51
2019-03-27T03:16:17.088Z,75.26
2019-03-27T03:18:48.413Z,76.12
2019-03-27T03:21:19.731Z,76.54
2019-03-27T03:23:51.055Z,76.05
2019-03-27T03:26:22.897Z,76.10
2019-03-27T03:28:54.418Z,75.95
2019-03-27T03:31:25.887Z,75.99
2019-03-27T03:33:57.319Z,76.33
2019-03-27T03:36:28.542Z,76.09
2019-03-27T03:38:59.663Z,75.81
2019-03-27T03:41:32.374Z,76.49
2019-03-27T03:44:03.629Z,76.87
2019-03-27T03:46:34.960Z,76.27
2019-03-27T03:49:06.430Z,76.44
2019-03-27T03:51:37.744Z,75.45
2019-03-27T03:54:09.079Z,75.90
2019-03-27T03:56:41.668Z,76.00
2019-03-27T03:59:13.013Z,75.73
2019-03-27T04:01:44.375Z,75.01
2019-03-27T04:04:15.891Z,75.51
2019-03-27T04:06:47.312Z,75.30
2019-03-27T04:09:18.749Z,74.91
2019-03-27T04:11:50.944Z,75.04
2019-03-27T04:14:22.582Z,74.71
2019-03-27T04:16:53.896Z,74.92
2019-03-27T04:19:25.230Z,74.77
2019-03-27T04:21:56.727Z,73.87
2019-03-27T04:24:28.055Z,74.28
2019-03-27T04:27:00.653Z,74.60
2019-03-27T04:29:32.078Z,74.39
2019-03-27T04:32:03.551Z,74.24
2019-03-27T04:34:34.877Z,73.83
2019-03-27T04:37:06.125Z,73.52
2019-03-27T04:39:37.567Z,73.57
2019-03-27T04:42:09.020Z,73.11
2019-03-27T04:44:40.467Z,72.31
2019-03-27T04:47:11.801Z,72.57
2019-03-27T04:49:43.052Z,71.84
2019-03-27T04:52:14.397Z,72.75
2019-03-27T04:54:45.743Z,71.62
2019-03-27T04:57:17.071Z,72.22
2019-03-27T04:59:48.514Z,72.60
2019-03-27T05:02:19.928Z,71.09
2019-03-27T05:04:51.520Z,70.27
2019-03-27T05:07:22.881Z,71.27
2019-03-27T05:09:54.369Z,70.16
2019-03-27T05:12:25.656Z,69.00
2019-03-27T05:14:57.091Z,69.70
2019-03-27T05:17:28.360Z,68.55
2019-03-27T05:20:00.733Z,68.39
2019-03-27T05:22:32.094Z,68.31
2019-03-27T05:25:03.657Z,68.01
2019-03-27T05:27:36.437Z,67.34
2019-03-27T05:30:08.013Z,67.15
2019-03-27T05:32:39.311Z,67.51
2019-03-27T05:35:10.621Z,66.95
2019-03-27T05:37:41.878Z,67.43
2019-03-27T05:40:13.208Z,65.74
2019-03-27T05:42:44.529Z,65.19
2019-03-27T05:45:15.849Z,64.36
2019-03-27T05:47:58.992Z,63.95
2019-03-27T05:50:20.316Z,64.50
2019-03-27T05:52:51.662Z,64.12
2019-03-27T05:55:22.847Z,64.11
2019-03-27T05:57:54.096Z,63.20
2019-03-27T06:00:25.421Z,62.89
2019-03-27T06:02:56.847Z,63.33
2019-03-27T06:05:28.206Z,62.72
2019-03-27T06:07:59.518Z,62.71
2019-03-27T06:10:30.806Z,61.31
2019-03-27T06:13:02.110Z,59.76
2019-03-27T06:15:34.534Z,59.52
2019-03-27T06:18:12.952Z,58.01
2019-03-27T06:20:39.024Z,57.77
2019-03-27T06:23:10.414Z,56.38
2019-03-27T06:25:41.688Z,55.63
2019-03-27T06:28:13.078Z,54.81
2019-03-27T06:30:44.655Z,52.57
2019-03-27T06:33:15.845Z,52.33
2019-03-27T06:35:47.192Z,51.90
2019-03-27T06:38:18.542Z,50.14
2019-03-27T06:40:49.951Z,50.45
2019-03-27T06:43:21.269Z,49.34
2019-03-27T06:45:52.794Z,49.62
2019-03-27T06:48:26.357Z,49.10
2019-03-27T06:50:57.478Z,48.78
2019-03-27T06:53:28.938Z,49.44
2019-03-27T06:56:00.256Z,47.31
2019-03-27T06:58:32.675Z,44.31
2019-03-27T07:01:04.138Z,44.63
2019-03-27T07:03:35.464Z,42.48
2019-03-27T07:06:06.892Z,42.09
2019-03-27T07:08:38.351Z,43.30
2019-03-27T07:11:09.813Z,43.26
2019-03-27T07:13:41.035Z,41.13
2019-03-27T07:16:12.345Z,37.74
2019-03-27T07:18:43.588Z,35.29
2019-03-27T07:21:15.082Z,33.94
2019-03-27T07:23:46.551Z,34.33
2019-03-27T07:26:17.926Z,32.69
2019-03-27T07:28:49.338Z,32.46
2019-03-27T07:31:20.611Z,32.89
2019-03-27T07:33:51.944Z,32.19
2019-03-27T07:36:23.383Z,32.92
2019-03-27T07:38:54.771Z,33.09
2019-03-27T07:41:26.032Z,33.35
2019-03-27T07:43:57.422Z,33.23
2019-03-27T07:46:28.735Z,33.38
2019-03-27T07:49:00.222Z,32.23
2019-03-27T07:51:31.555Z,33.11
2019-03-27T07:54:03.023Z,33.21
2019-03-27T07:56:34.486Z,33.78
2019-03-27T07:59:07.080Z,34.15
2019-03-27T08:01:38.547Z,34.50
2019-03-27T08:04:09.897Z,35.13
2019-03-27T08:06:41.118Z,35.10
2019-03-27T08:09:12.257Z,34.63
2019-03-27T08:11:43.486Z,34.50
2019-03-27T08:14:14.936Z,33.95
2019-03-27T08:16:46.381Z,34.10
2019-03-27T08:19:17.623Z,33.57
2019-03-27T08:21:48.880Z,33.51
2019-03-27T08:24:20.183Z,33.29
2019-03-27T08:26:51.522Z,31.20
2019-03-27T08:29:23.209Z,29.90
2019-03-27T08:31:54.666Z,30.77
2019-03-27T08:34:26.023Z,32.17
2019-03-27T08:36:58.475Z,32.78
2019-03-27T08:39:31.366Z,32.91
2019-03-27T08:42:02.837Z,32.79
2019-03-27T08:44:34.255Z,32.87
2019-03-27T08:47:05.629Z,33.43
2019-03-27T08:49:36.988Z,33.22
2019-03-27T08:52:09.513Z,34.14
2019-03-27T08:54:40.859Z,34.51
2019-03-27T08:57:12.248Z,34.11
2019-03-27T08:59:43.580Z,32.79
2019-03-27T09:02:14.908Z,30.86
2019-03-27T09:04:47.762Z,29.07
2019-03-27T09:07:19.004Z,28.99
2019-03-27T09:09:50.179Z,28.87
2019-03-27T09:12:21.417Z,31.61
2019-03-27T09:14:53.852Z,29.37
2019-03-27T09:17:25.136Z,29.43
2019-03-27T09:19:56.561Z,30.18
2019-03-27T09:22:27.877Z,31.07
2019-03-27T09:24:59.185Z,32.78
2019-03-27T09:27:30.525Z,33.68
2019-03-27T09:30:01.826Z,34.45
2019-03-27T09:32:34.601Z,36.21
2019-03-27T09:35:05.978Z,37.41
2019-03-27T09:37:37.460Z,38.47
2019-03-27T09:40:08.743Z,37.61
2019-03-27T09:42:41.056Z,36.26
2019-03-27T09:45:12.991Z,36.13
2019-03-27T09:47:43.673Z,35.81
2019-03-27T09:50:14.676Z,36.51
2019-03-27T09:52:46.072Z,36.03
2019-03-27T09:55:17.375Z,35.64
2019-03-27T09:57:48.754Z,35.24
2019-03-27T10:00:48.853Z,35.37
2019-03-27T10:03:20.355Z,34.90
2019-03-27T10:05:51.688Z,35.01
2019-03-27T10:08:23.046Z,34.74
2019-03-27T10:10:54.417Z,34.54
2019-03-27T10:13:25.738Z,34.93
2019-03-27T10:15:57.204Z,34.25
2019-03-27T10:18:28.534Z,34.65
2019-03-27T10:20:59.898Z,34.34
2019-03-27T10:23:31.295Z,33.62
2019-03-27T10:26:02.718Z,33.68
2019-03-27T10:28:34.190Z,33.74
2019-03-27T10:31:05.563Z,34.10
2019-03-27T10:33:36.934Z,34.30
2019-03-27T10:36:08.314Z,34.57
2019-03-27T10:38:41.723Z,35.06
2019-03-27T10:41:14.484Z,35.60
2019-03-27T10:43:45.739Z,34.83
2019-03-27T10:46:17.238Z,35.13
2019-03-27T10:48:52.863Z,34.75
2019-03-27T10:51:22.035Z,35.12
2019-03-27T10:53:53.412Z,35.08
2019-03-27T10:56:24.811Z,34.67
2019-03-27T10:58:56.192Z,34.99
2019-03-27T11:01:27.586Z,34.70
2019-03-27T11:03:58.812Z,34.95
2019-03-27T11:06:30.169Z,35.96
2019-03-27T11:09:01.554Z,33.92
2019-03-27T11:11:34.349Z,34.84
2019-03-27T11:14:05.707Z,34.80
2019-03-27T11:16:37.079Z,34.45
2019-03-27T11:19:08.450Z,34.66
2019-03-27T11:21:40.678Z,35.30
2019-03-27T11:24:13.276Z,35.30
2019-03-27T11:26:44.698Z,35.19
2019-03-27T11:29:16.020Z,35.91
2019-03-27T11:31:47.391Z,37.26
2019-03-27T11:34:18.725Z,37.41
2019-03-27T11:36:50.140Z,36.88
2019-03-27T11:39:24.599Z,35.98
2019-03-27T11:41:54.504Z,36.55
2019-03-27T11:44:25.848Z,36.35
2019-03-27T11:46:57.251Z,36.50
2019-03-27T11:49:28.582Z,36.79
2019-03-27T11:51:59.908Z,36.68
2019-03-27T11:54:31.216Z,36.79
2019-03-27T11:57:02.463Z,36.73
2019-03-27T11:59:33.803Z,37.03
2019-03-27T12:02:05.186Z,37.08
2019-03-27T12:04:36.498Z,37.54
2019-03-27T12:07:07.815Z,37.73
2019-03-27T12:09:39.152Z,41.46
2019-03-27T12:12:10.498Z,43.26
2019-03-27T12:14:41.756Z,44.00
2019-03-27T12:17:13.368Z,47.33
2019-03-27T12:19:44.738Z,50.71
2019-03-27T12:22:16.141Z,51.88
2019-03-27T12:24:47.566Z,52.32
2019-03-27T12:27:19.884Z,52.97
2019-03-27T12:29:51.206Z,54.06
2019-03-27T12:32:24.946Z,54.14
2019-03-27T12:34:55.538Z,54.48
2019-03-27T12:37:26.782Z,55.31
2019-03-27T12:39:58.182Z,54.92
2019-03-27T12:42:29.524Z,55.16
2019-03-27T12:45:02.036Z,57.21
2019-03-27T12:47:33.873Z,60.53
2019-03-27T12:50:07.533Z,63.39
2019-03-27T12:52:38.787Z,63.98
2019-03-27T12:55:10.062Z,66.83
2019-03-27T12:57:41.346Z,66.71
2019-03-27T13:00:12.765Z,68.70
2019-03-27T13:02:44.156Z,70.13
2019-03-27T13:05:15.471Z,70.79
2019-03-27T13:07:50.235Z,73.09
2019-03-27T13:10:22.032Z,72.59
2019-03-27T13:12:53.350Z,74.12
2019-03-27T13:15:24.759Z,74.52
2019-03-27T13:17:56.157Z,75.34
2019-03-27T13:20:27.415Z,76.53
2019-03-27T13:22:58.735Z,77.16
2019-03-27T13:25:30.127Z,76.59
2019-03-27T13:28:02.566Z,76.70
2019-03-27T13:30:33.924Z,77.12
2019-03-27T13:33:05.311Z,76.79
2019-03-27T13:35:36.688Z,77.64
2019-03-27T13:38:08.069Z,77.54
2019-03-27T13:40:39.422Z,77.04
2019-03-27T13:43:10.818Z,77.82
2019-03-27T13:45:42.144Z,77.34
2019-03-27T13:48:13.464Z,76.62
2019-03-27T13:50:44.917Z,77.39
2019-03-27T13:53:16.166Z,78.33
2019-03-27T13:55:47.549Z,78.48
2019-03-27T13:58:18.879Z,78.01
2019-03-27T14:00:50.203Z,78.09
2019-03-27T14:03:21.634Z,76.80
2019-03-27T14:05:52.944Z,77.53
2019-03-27T14:08:24.296Z,76.29
2019-03-27T14:10:56.631Z,77.88
2019-03-27T14:13:28.828Z,78.03
2019-03-27T14:16:00.145Z,79.15
2019-03-27T14:18:31.372Z,79.15
2019-03-27T14:21:02.778Z,80.44
2019-03-27T14:23:34.503Z,79.79
2019-03-27T14:26:05.925Z,78.66
2019-03-27T14:28:37.399Z,78.90
2019-03-27T14:31:08.820Z,78.90
2019-03-27T14:33:40.266Z,79.04
2019-03-27T14:36:12.557Z,79.30
2019-03-27T14:38:44.003Z,78.94
2019-03-27T14:41:15.324Z,78.63
2019-03-27T14:43:46.554Z,79.33
2019-03-27T14:46:17.791Z,79.71
2019-03-27T14:48:49.123Z,80.30
2019-03-27T14:51:20.431Z,80.52
2019-03-27T14:53:51.782Z,80.38
2019-03-27T14:56:23.091Z,80.44
2019-03-27T14:58:54.425Z,80.54
2019-03-27T15:01:25.746Z,79.97
2019-03-27T15:03:57.072Z,80.63
2019-03-27T15:06:28.400Z,80.57
2019-03-27T15:08:59.720Z,81.31
2019-03-27T15:11:31.052Z,80.93
2019-03-27T15:14:02.303Z,81.36
2019-03-27T15:16:33.575Z,81.00
2019-03-27T15:19:05.083Z,80.78
2019-03-27T15:21:36.414Z,80.94
2019-03-27T15:24:07.666Z,81.49
2019-03-27T15:26:39.172Z,81.68
2019-03-27T15:29:10.514Z,82.06
2019-03-27T15:31:41.881Z,81.88
2019-03-27T15:34:13.351Z,81.51
2019-03-27T15:36:44.794Z,81.51
2019-03-27T15:39:16.027Z,81.65
2019-03-27T15:41:49.396Z,82.89
2019-03-27T15:44:21.122Z,82.29
2019-03-27T15:46:52.446Z,81.89
2019-03-27T15:49:23.803Z,83.17
2019-03-27T15:51:56.583Z,83.27
2019-03-27T15:54:27.832Z,82.53
2019-03-27T15:56:59.181Z,82.73
2019-03-27T15:59:30.782Z,84.02
2019-03-27T16:02:02.096Z,84.37
2019-03-27T16:04:33.341Z,83.13
2019-03-27T16:07:04.672Z,82.28
2019-03-27T16:09:36.009Z,82.74
2019-03-27T16:12:07.437Z,82.91
2019-03-27T16:14:38.889Z,82.98
2019-03-27T16:17:13.542Z,82.69
2019-03-27T16:19:44.525Z,82.27
2019-03-27T16:22:15.854Z,83.02
2019-03-27T16:24:47.177Z,81.99
2019-03-27T16:27:18.496Z,82.76
2019-03-27T16:29:49.785Z,83.12
2019-03-27T16:32:21.006Z,82.43
2019-03-27T16:34:52.364Z,82.71
2019-03-27T16:37:23.766Z,83.42
2019-03-27T16:39:55.147Z,82.79
2019-03-27T16:42:26.478Z,83.15
2019-03-27T16:44:57.856Z,83.18
2019-03-27T16:47:29.275Z,83.56
2019-03-27T16:50:00.590Z,83.29
2019-03-27T16:52:32.204Z,83.76
2019-03-27T16:55:04.744Z,84.17
2019-03-27T16:57:36.098Z,84.18
2019-03-27T17:00:08.063Z,84.35
2019-03-27T17:02:39.490Z,83.71
2019-03-27T17:05:11.076Z,84.92
2019-03-27T17:07:42.534Z,84.25
2019-03-27T17:10:13.871Z,83.80
2019-03-27T17:12:45.176Z,84.30
2019-03-27T17:15:16.536Z,84.57
2019-03-27T17:17:48.411Z,84.17
2019-03-27T17:20:19.723Z,83.95
2019-03-27T17:22:51.036Z,84.25
2019-03-27T17:25:22.392Z,84.78
2019-03-27T17:27:55.751Z,84.34
2019-03-27T17:30:26.864Z,83.71
2019-03-27T17:32:58.116Z,84.67
2019-03-27T17:35:30.564Z,84.80
2019-03-27T17:38:01.779Z,84.03
2019-03-27T17:40:33.031Z,83.86
2019-03-27T17:43:04.468Z,84.20
2019-03-27T17:45:35.760Z,85.20
2019-03-27T17:48:07.116Z,84.79
2019-03-27T17:50:38.429Z,85.04
2019-03-27T17:53:09.775Z,85.01
2019-03-27T17:55:41.109Z,84.77
2019-03-27T17:58:12.523Z,84.52
2019-03-27T18:00:45.639Z,84.46
2019-03-27T18:03:16.957Z,84.18
2019-03-27T18:05:49.496Z,84.81
2019-03-27T18:08:20.909Z,84.53
2019-03-27T18:10:52.389Z,84.14
2019-03-27T18:13:23.791Z,84.56
2019-03-27T18:15:55.086Z,84.52
2019-03-27T18:18:26.526Z,84.21
2019-03-27T18:20:57.885Z,83.79
2019-03-27T18:23:29.330Z,84.54
2019-03-27T18:26:01.094Z,84.77
2019-03-27T18:28:32.394Z,84.58
2019-03-27T18:31:03.727Z,84.67
2019-03-27T18:33:35.072Z,84.20
2019-03-27T18:36:06.392Z,84.60
2019-03-27T18:38:39.046Z,84.87
2019-03-27T18:41:10.369Z,84.07
2019-03-27T18:43:41.766Z,84.71
2019-03-27T18:46:13.097Z,84.26
2019-03-27T18:48:44.447Z,84.15
2019-03-27T18:51:15.713Z,84.65
2019-03-27T18:53:59.120Z,84.42
2019-03-27T18:56:20.159Z,84.50
2019-03-27T18:58:51.529Z,84.82
2019-03-27T19:01:23.013Z,84.43
2019-03-27T19:03:55.953Z,84.89
2019-03-27T19:06:28.752Z,84.73
2019-03-27T19:09:00.119Z,84.72
2019-03-27T19:11:31.609Z,84.49
2019-03-27T19:14:02.983Z,84.83
2019-03-27T19:16:34.334Z,85.14
2019-03-27T19:19:05.777Z,85.00
2019-03-27T19:21:37.204Z,84.35
2019-03-27T19:24:16.103Z,84.07
2019-03-27T19:26:41.548Z,84.31
2019-03-27T19:29:12.960Z,83.82
2019-03-27T19:31:44.350Z,84.58
2019-03-27T19:34:15.880Z,85.03
2019-03-27T19:36:47.284Z,85.16
2019-03-27T19:39:18.693Z,84.44
2019-03-27T19:41:50.121Z,85.16
2019-03-27T19:44:21.609Z,84.51
2019-03-27T19:46:53.065Z,85.49
2019-03-27T19:49:24.412Z,84.43
2019-03-27T19:51:55.920Z,84.96
2019-03-27T19:54:27.702Z,84.71
2019-03-27T19:56:58.536Z,84.96
2019-03-27T19:59:29.571Z,84.81
2019-03-27T20:02:00.952Z,85.16
2019-03-27T20:04:32.166Z,85.54
2019-03-27T20:07:05.366Z,85.63
2019-03-27T20:09:36.780Z,86.23
2019-03-27T20:12:08.310Z,85.19
2019-03-27T20:14:42.398Z,85.74
2019-03-27T20:17:12.789Z,86.30
2019-03-27T20:19:44.204Z,86.65
2019-03-27T20:22:16.835Z,86.59
2019-03-27T20:24:48.174Z,86.70
2019-03-27T20:27:21.508Z,86.36
2019-03-27T20:29:52.778Z,85.74
2019-03-27T20:32:24.011Z,85.69
2019-03-27T20:34:55.068Z,85.10
2019-03-27T20:37:26.467Z,86.50
2019-03-27T20:39:57.805Z,85.55
2019-03-27T20:42:29.134Z,85.84
2019-03-27T20:45:00.485Z,85.67
2019-03-27T20:47:31.851Z,85.12
2019-03-27T20:50:03.379Z,85.56
2019-03-27T20:52:34.768Z,85.91
2019-03-27T20:55:06.912Z,85.40
2019-03-27T20:57:38.262Z,85.78
2019-03-27T21:00:09.752Z,86.04
2019-03-27T21:02:41.381Z,86.43
2019-03-27T21:05:12.779Z,85.27
2019-03-27T21:07:44.196Z,86.21
2019-03-27T21:10:15.547Z,86.33
2019-03-27T21:12:48.197Z,85.74
2019-03-27T21:15:19.531Z,86.39
2019-03-27T21:17:50.866Z,86.63
2019-03-27T21:20:22.218Z,85.98
2019-03-27T21:22:53.565Z,86.25
2019-03-27T21:25:26.032Z,86.17
2019-03-27T21:27:57.594Z,85.58
2019-03-27T21:30:28.925Z,85.37
2019-03-27T21:33:00.263Z,85.15
2019-03-27T21:35:31.635Z,85.01
2019-03-27T21:38:03.141Z,84.93
2019-03-27T21:40:34.743Z,84.38
2019-03-27T21:43:06.068Z,84.50
2019-03-27T21:45:37.225Z,83.78
2019-03-27T21:48:08.465Z,83.87
2019-03-27T21:50:42.836Z,85.41
2019-03-27T21:53:14.201Z,84.21
2019-03-27T21:55:45.510Z,84.22
2019-03-27T21:58:16.901Z,84.55
2019-03-27T22:00:48.289Z,84.61
2019-03-27T22:03:19.719Z,83.94
2019-03-27T22:05:51.073Z,84.33
2019-03-27T22:08:22.428Z,83.96
2019-03-27T22:10:54.287Z,83.72
2019-03-27T22:13:25.928Z,84.46
2019-03-27T22:15:57.291Z,84.38
2019-03-27T22:18:28.707Z,84.36
2019-03-27T22:21:00.235Z,84.39
2019-03-27T22:23:31.500Z,83.77
2019-03-27T22:26:02.840Z,84.10
2019-03-27T22:28:34.217Z,84.33
2019-03-27T22:31:05.955Z,85.13
2019-03-27T22:33:37.307Z,85.38
2019-03-27T22:36:08.874Z,85.28
2019-03-27T22:38:40.217Z,85.79
2019-03-27T22:41:11.612Z,86.05
2019-03-27T22:43:43.110Z,85.36
2019-03-27T22:46:14.474Z,86.45
2019-03-27T22:48:45.861Z,86.49
2019-03-27T22:51:17.262Z,85.86
2019-03-27T22:53:48.632Z,85.85
2019-03-27T22:56:19.974Z,85.68
2019-03-27T22:58:51.303Z,85.86
2019-03-27T23:01:22.666Z,85.43
2019-03-27T23:03:54.049Z,85.85
2019-03-27T23:06:25.412Z,85.60
2019-03-27T23:08:56.765Z,85.76
2019-03-27T23:11:28.150Z,86.44
2019-03-27T23:13:59.545Z,86.33
2019-03-27T23:16:30.897Z,86.39
2019-03-27T23:19:02.255Z,86.33
2019-03-27T23:21:33.657Z,86.75
2019-03-27T23:24:04.988Z,86.19
2019-03-27T23:26:36.306Z,85.98
2019-03-27T23:29:07.648Z,86.20
2019-03-27T23:31:38.983Z,86.39
2019-03-27T23:34:10.460Z,86.19
2019-03-27T23:36:41.787Z,86.50
2019-03-27T23:39:13.126Z,86.52
2019-03-27T23:41:44.485Z,86.43
2019-03-27T23:44:15.804Z,87.09
2019-03-27T23:46:47.147Z,85.94
2019-03-27T23:49:18.553Z,85.80
2019-03-27T23:51:49.799Z,86.23
2019-03-27T23:54:22.208Z,86.20
2019-03-27T23:56:53.525Z,85.53
2019-03-27T23:59:24.856Z,84.64
